RJCNRJCH

Guest
Details From RJCN - NAKASHIBETSU
To RJCH - HAKODATE
Flight Number -
Tags decoded
Created
Modified
Stats Distance 219 nm / 406 km
Max Altitude 0 ft / 0 m
Waypoints 6
Social Downloads 0
Likes 0
Share VATSIM

Download

Looking for another format? Having issues loading an existing format? Contact us
Advertisement - Login to hide

Notes

Requested: RJCN KSE OBE MKE HWE RJCH

Route

RJCN KSE OBE MKE HWE RJCH

ID Type Via Altitude Latitude Longitude Leg Dist Tot Dist Heading (true) Name
O RJCN APT - 0 ft / 0 m 43.57743˚ 144.95979˚ - 0 nm - NAKASHIBETSU
KSE VOR - 0 ft / 0 m 43.03380˚ 144.20411˚ 46 nm 46 nm 226° / 225° KUSHIRO VOR-DME
OBE VOR - 0 ft / 0 m 42.73396˚ 143.22045˚ 46 nm 93 nm 248° / 247° OBIHIRO VOR-DME
MKE VOR - 0 ft / 0 m 42.55501˚ 141.95563˚ 56 nm 150 nm 260° / 259° MUKAWA VOR-DME
HWE VOR - 0 ft / 0 m 41.77403˚ 140.83222˚ 68 nm 218 nm 227° / 226° HAKODATE VOR-DME
O RJCH APT - 0 ft / 0 m 41.77016˚ 140.82203˚ 0 nm 219 nm 243° / 243° HAKODATE

Altitude Profile

Advertisement - Login to hide

Weather


0- 5 10 15 20 25 30 35+ Temperature / ° C

Clouds and Precipitation
Forecast for 2017-12-12 06:00 UTC. Updated 2 hours ago

Ground ~20,000 ft ~40,000 ft Winds

RJCN

Details ICAO RJCN (SHB)
Name NAKASHIBETSU
Region Japan
Timezone Asia/Tokyo (UTC+9.0)
Stats Elevation 234 ft / 71 m (AMSL)
Location 43.577427° 144.959791°
Runways 1
Magnetic Variation 8.928° W

METAR

RJCN 120600Z 24016KT 9999 FEW025 M02/M13 Q0993

Decode

TAF

Not found

Departure Runways

ID Width Length Bearing (true) Bearing (mag) Surface Threshold Offset Overrun Length
08 150 ft / 46 m 6,549 ft / 1,996 m 70.96° 79.89° Asphalt 0 ft / 0 m 200 ft / 61 m
26 150 ft / 46 m 6,549 ft / 1,996 m 250.97° 259.90° Asphalt 0 ft / 0 m 200 ft / 61 m

RJCH

Details ICAO RJCH (HKD)
Name HAKODATE
Region Japan
Timezone Asia/Tokyo (UTC+9.0)
Stats Elevation 151 ft / 46 m (AMSL)
Location 41.770161° 140.822030°
Runways 1
Magnetic Variation 9.238° W

METAR

RJCH 120628Z 27020G30KT 0200 R12/0400VP2000D SHSN BLSN VV002 M04/M04 Q1002 RMK A2960

Decode

TAF

TAF RJCH 120513Z 1206/1312 28023G33KT 9999 -SHSN FEW003 BKN015 TEMPO 1206/1210 0500 SHSN BLSN VV003 TEMPO 1210/1215 0700 SHSN VV005 TEMPO 1215/1218 1500 -SHSN FEW005 BKN008 TEMPO 1218/1303 2000 -SHSN

Decode

Destination Runways

ID Width Length Bearing (true) Bearing (mag) Surface Threshold Offset Overrun Length
12 150 ft / 46 m 9,814 ft / 2,991 m 108.09° 117.33° Asphalt 0 ft / 0 m 197 ft / 60 m
30 150 ft / 46 m 9,814 ft / 2,991 m 288.11° 297.35° Asphalt 0 ft / 0 m 197 ft / 60 m

Approach Navaids

Runway Type Ident Frequency Range Bearing (true) Bearing (mag) Slope Elevation
12 Localiser IHL 109.30 MHz 18 nm / 33 km 108.05° 117.29° - 51 ft / 16 m (AMSL)
12 Glidescope IHL 109.30 MHz 10 nm / 19 km 108.10° 117.34° 3.00° 151 ft / 46 m (AMSL)
12 DME IHL 109.30 MHz 18 nm / 33 km - - - 111 ft / 34 m (AMSL)

Popular Alternatives